sensor_id;sensor_type;location;lat;lon;timestamp;P1;durP1;ratioP1;P2;durP2;ratioP2
78893;SDS011;68282;42.698;23.350;2023-12-20T00:00:19;146.80;;;81.13;;
78893;SDS011;68282;42.698;23.350;2023-12-20T00:02:45;141.73;;;78.25;;
78893;SDS011;68282;42.698;23.350;2023-12-20T00:05:12;135.20;;;80.07;;
78893;SDS011;68282;42.698;23.350;2023-12-20T00:07:39;135.43;;;72.65;;
78893;SDS011;68282;42.698;23.350;2023-12-20T00:10:05;147.77;;;77.25;;
78893;SDS011;68282;42.698;23.350;2023-12-20T00:12:31;145.52;;;73.65;;
78893;SDS011;68282;42.698;23.350;2023-12-20T00:14:57;144.38;;;74.93;;
78893;SDS011;68282;42.698;23.350;2023-12-20T00:17:22;170.55;;;83.80;;
78893;SDS011;68282;42.698;23.350;2023-12-20T00:19:48;156.52;;;82.60;;
78893;SDS011;68282;42.698;23.350;2023-12-20T00:22:13;140.65;;;78.38;;
78893;SDS011;68282;42.698;23.350;2023-12-20T00:24:40;145.88;;;71.57;;
78893;SDS011;68282;42.698;23.350;2023-12-20T00:27:06;125.55;;;69.25;;
78893;SDS011;68282;42.698;23.350;2023-12-20T00:29:31;133.18;;;67.97;;
78893;SDS011;68282;42.698;23.350;2023-12-20T00:31:57;115.55;;;66.97;;
78893;SDS011;68282;42.698;23.350;2023-12-20T00:34:22;123.88;;;66.43;;
78893;SDS011;68282;42.698;23.350;2023-12-20T00:36:48;121.97;;;66.07;;
78893;SDS011;68282;42.698;23.350;2023-12-20T00:39:13;116.53;;;65.13;;
78893;SDS011;68282;42.698;23.350;2023-12-20T00:41:38;107.80;;;69.38;;
78893;SDS011;68282;42.698;23.350;2023-12-20T00:44:04;115.35;;;65.00;;
78893;SDS011;68282;42.698;23.350;2023-12-20T00:46:30;114.72;;;64.63;;
78893;SDS011;68282;42.698;23.350;2023-12-20T00:48:55;126.80;;;63.15;;
78893;SDS011;68282;42.698;23.350;2023-12-20T00:51:21;132.02;;;63.97;;
78893;SDS011;68282;42.698;23.350;2023-12-20T00:53:47;102.03;;;61.90;;
78893;SDS011;68282;42.698;23.350;2023-12-20T00:56:15;116.40;;;61.90;;
78893;SDS011;68282;42.698;23.350;2023-12-20T00:58:40;114.53;;;59.33;;
78893;SDS011;68282;42.698;23.350;2023-12-20T01:01:06;100.43;;;54.88;;
78893;SDS011;68282;42.698;23.350;2023-12-20T01:03:31;106.07;;;59.13;;
78893;SDS011;68282;42.698;23.350;2023-12-20T01:05:57;104.95;;;57.28;;
78893;SDS011;68282;42.698;23.350;2023-12-20T01:08:23;106.63;;;55.97;;
78893;SDS011;68282;42.698;23.350;2023-12-20T01:10:48;107.00;;;55.28;;
78893;SDS011;68282;42.698;23.350;2023-12-20T01:13:14;116.53;;;59.72;;
78893;SDS011;68282;42.698;23.350;2023-12-20T01:15:39;106.50;;;53.55;;
78893;SDS011;68282;42.698;23.350;2023-12-20T01:18:05;114.22;;;57.05;;
78893;SDS011;68282;42.698;23.350;2023-12-20T01:20:31;105.88;;;54.28;;
78893;SDS011;68282;42.698;23.350;2023-12-20T01:22:56;100.38;;;51.38;;
78893;SDS011;68282;42.698;23.350;2023-12-20T01:25:22;95.60;;;54.67;;
78893;SDS011;68282;42.698;23.350;2023-12-20T01:27:47;101.03;;;52.53;;
78893;SDS011;68282;42.698;23.350;2023-12-20T01:30:13;93.90;;;50.47;;
78893;SDS011;68282;42.698;23.350;2023-12-20T01:32:40;89.68;;;49.30;;
78893;SDS011;68282;42.698;23.350;2023-12-20T01:35:05;88.55;;;46.00;;
78893;SDS011;68282;42.698;23.350;2023-12-20T01:37:31;71.88;;;45.47;;
78893;SDS011;68282;42.698;23.350;2023-12-20T01:39:57;85.32;;;47.03;;
78893;SDS011;68282;42.698;23.350;2023-12-20T01:42:23;86.75;;;48.53;;
78893;SDS011;68282;42.698;23.350;2023-12-20T01:44:49;76.15;;;42.78;;
78893;SDS011;68282;42.698;23.350;2023-12-20T01:47:14;75.70;;;43.13;;
78893;SDS011;68282;42.698;23.350;2023-12-20T01:49:40;73.05;;;41.33;;
78893;SDS011;68282;42.698;23.350;2023-12-20T01:52:06;82.57;;;43.40;;
78893;SDS011;68282;42.698;23.350;2023-12-20T01:54:32;95.22;;;52.60;;
78893;SDS011;68282;42.698;23.350;2023-12-20T01:57:01;79.45;;;44.42;;
78893;SDS011;68282;42.698;23.350;2023-12-20T01:59:28;95.00;;;48.58;;
78893;SDS011;68282;42.698;23.350;2023-12-20T02:01:54;82.65;;;45.20;;
78893;SDS011;68282;42.698;23.350;2023-12-20T02:04:20;91.30;;;44.75;;
78893;SDS011;68282;42.698;23.350;2023-12-20T02:06:46;78.82;;;38.53;;
78893;SDS011;68282;42.698;23.350;2023-12-20T02:09:11;73.22;;;41.45;;
78893;SDS011;68282;42.698;23.350;2023-12-20T02:11:37;84.35;;;41.67;;
78893;SDS011;68282;42.698;23.350;2023-12-20T02:14:03;96.38;;;50.03;;
78893;SDS011;68282;42.698;23.350;2023-12-20T02:16:28;101.72;;;50.05;;
78893;SDS011;68282;42.698;23.350;2023-12-20T02:18:54;87.38;;;48.42;;
78893;SDS011;68282;42.698;23.350;2023-12-20T02:21:41;82.70;;;42.25;;
78893;SDS011;68282;42.698;23.350;2023-12-20T02:24:06;64.90;;;35.47;;
78893;SDS011;68282;42.698;23.350;2023-12-20T02:26:32;62.33;;;36.47;;
78893;SDS011;68282;42.698;23.350;2023-12-20T02:28:58;64.50;;;36.47;;
78893;SDS011;68282;42.698;23.350;2023-12-20T02:31:24;74.03;;;35.65;;
78893;SDS011;68282;42.698;23.350;2023-12-20T02:33:50;73.07;;;39.33;;
78893;SDS011;68282;42.698;23.350;2023-12-20T02:36:15;56.83;;;32.33;;
78893;SDS011;68282;42.698;23.350;2023-12-20T02:38:41;61.85;;;32.33;;
78893;SDS011;68282;42.698;23.350;2023-12-20T02:41:06;57.25;;;30.85;;
78893;SDS011;68282;42.698;23.350;2023-12-20T02:43:32;58.70;;;30.98;;
78893;SDS011;68282;42.698;23.350;2023-12-20T02:45:57;59.05;;;32.58;;
78893;SDS011;68282;42.698;23.350;2023-12-20T02:48:23;60.53;;;32.28;;
78893;SDS011;68282;42.698;23.350;2023-12-20T02:50:48;60.38;;;33.67;;
78893;SDS011;68282;42.698;23.350;2023-12-20T02:53:14;61.90;;;30.05;;
78893;SDS011;68282;42.698;23.350;2023-12-20T02:55:40;55.40;;;31.10;;
78893;SDS011;68282;42.698;23.350;2023-12-20T02:58:05;60.35;;;30.15;;
78893;SDS011;68282;42.698;23.350;2023-12-20T03:00:31;64.28;;;31.90;;
78893;SDS011;68282;42.698;23.350;2023-12-20T03:02:56;60.35;;;29.30;;
78893;SDS011;68282;42.698;23.350;2023-12-20T03:05:24;49.00;;;26.85;;
78893;SDS011;68282;42.698;23.350;2023-12-20T03:07:49;59.78;;;28.25;;
78893;SDS011;68282;42.698;23.350;2023-12-20T03:10:15;60.63;;;29.02;;
78893;SDS011;68282;42.698;23.350;2023-12-20T03:12:40;64.65;;;30.85;;
78893;SDS011;68282;42.698;23.350;2023-12-20T03:15:06;59.50;;;29.63;;
78893;SDS011;68282;42.698;23.350;2023-12-20T03:17:32;65.05;;;31.10;;
78893;SDS011;68282;42.698;23.350;2023-12-20T03:19:57;58.88;;;26.95;;
78893;SDS011;68282;42.698;23.350;2023-12-20T03:22:23;55.95;;;30.08;;
78893;SDS011;68282;42.698;23.350;2023-12-20T03:24:48;55.75;;;27.88;;
78893;SDS011;68282;42.698;23.350;2023-12-20T03:27:14;46.55;;;24.42;;
78893;SDS011;68282;42.698;23.350;2023-12-20T03:29:39;47.28;;;22.73;;
78893;SDS011;68282;42.698;23.350;2023-12-20T03:32:05;35.72;;;21.08;;
78893;SDS011;68282;42.698;23.350;2023-12-20T03:34:31;46.70;;;21.17;;
78893;SDS011;68282;42.698;23.350;2023-12-20T03:36:57;47.75;;;20.63;;
78893;SDS011;68282;42.698;23.350;2023-12-20T03:39:23;41.05;;;23.27;;
78893;SDS011;68282;42.698;23.350;2023-12-20T03:41:48;37.10;;;21.45;;
78893;SDS011;68282;42.698;23.350;2023-12-20T03:44:14;44.80;;;23.02;;
78893;SDS011;68282;42.698;23.350;2023-12-20T03:46:41;32.95;;;17.55;;
78893;SDS011;68282;42.698;23.350;2023-12-20T03:49:08;46.88;;;20.20;;
78893;SDS011;68282;42.698;23.350;2023-12-20T03:51:33;44.60;;;20.98;;
78893;SDS011;68282;42.698;23.350;2023-12-20T03:53:59;40.38;;;20.50;;
78893;SDS011;68282;42.698;23.350;2023-12-20T03:56:24;40.38;;;20.65;;
78893;SDS011;68282;42.698;23.350;2023-12-20T03:58:50;42.30;;;22.33;;
78893;SDS011;68282;42.698;23.350;2023-12-20T04:01:15;43.65;;;23.00;;
78893;SDS011;68282;42.698;23.350;2023-12-20T04:03:41;35.22;;;19.02;;
78893;SDS011;68282;42.698;23.350;2023-12-20T04:06:07;35.13;;;20.05;;
78893;SDS011;68282;42.698;23.350;2023-12-20T04:08:32;34.40;;;18.85;;
78893;SDS011;68282;42.698;23.350;2023-12-20T04:10:58;46.15;;;24.13;;
78893;SDS011;68282;42.698;23.350;2023-12-20T04:13:23;38.00;;;20.10;;
78893;SDS011;68282;42.698;23.350;2023-12-20T04:15:49;41.10;;;20.38;;
78893;SDS011;68282;42.698;23.350;2023-12-20T04:18:16;33.17;;;17.63;;
78893;SDS011;68282;42.698;23.350;2023-12-20T04:20:41;33.47;;;18.10;;
78893;SDS011;68282;42.698;23.350;2023-12-20T04:23:07;41.22;;;19.88;;
78893;SDS011;68282;42.698;23.350;2023-12-20T04:25:32;44.08;;;21.38;;
78893;SDS011;68282;42.698;23.350;2023-12-20T04:27:58;36.25;;;22.85;;
78893;SDS011;68282;42.698;23.350;2023-12-20T04:30:23;36.53;;;20.83;;
78893;SDS011;68282;42.698;23.350;2023-12-20T04:32:49;34.33;;;21.38;;
78893;SDS011;68282;42.698;23.350;2023-12-20T04:35:14;48.35;;;26.58;;
78893;SDS011;68282;42.698;23.350;2023-12-20T04:37:40;50.60;;;28.95;;
78893;SDS011;68282;42.698;23.350;2023-12-20T04:40:05;42.25;;;25.05;;
78893;SDS011;68282;42.698;23.350;2023-12-20T04:42:32;46.47;;;24.38;;
78893;SDS011;68282;42.698;23.350;2023-12-20T04:44:58;45.85;;;26.02;;
78893;SDS011;68282;42.698;23.350;2023-12-20T04:47:23;50.30;;;25.58;;
78893;SDS011;68282;42.698;23.350;2023-12-20T04:49:49;53.35;;;25.73;;
78893;SDS011;68282;42.698;23.350;2023-12-20T04:52:14;60.90;;;28.67;;
78893;SDS011;68282;42.698;23.350;2023-12-20T04:54:40;55.53;;;28.60;;
78893;SDS011;68282;42.698;23.350;2023-12-20T04:57:05;61.75;;;29.48;;
78893;SDS011;68282;42.698;23.350;2023-12-20T04:59:31;72.07;;;30.45;;
78893;SDS011;68282;42.698;23.350;2023-12-20T05:01:56;59.60;;;31.25;;
78893;SDS011;68282;42.698;23.350;2023-12-20T05:04:22;73.88;;;33.63;;
78893;SDS011;68282;42.698;23.350;2023-12-20T05:06:48;60.30;;;31.77;;
78893;SDS011;68282;42.698;23.350;2023-12-20T05:09:15;54.45;;;30.55;;
78893;SDS011;68282;42.698;23.350;2023-12-20T05:11:40;48.88;;;26.52;;
78893;SDS011;68282;42.698;23.350;2023-12-20T05:14:06;53.78;;;29.58;;
78893;SDS011;68282;42.698;23.350;2023-12-20T05:16:32;59.97;;;28.73;;
78893;SDS011;68282;42.698;23.350;2023-12-20T05:18:58;49.53;;;25.80;;
78893;SDS011;68282;42.698;23.350;2023-12-20T05:21:26;43.42;;;23.85;;
78893;SDS011;68282;42.698;23.350;2023-12-20T05:23:51;53.70;;;25.50;;
78893;SDS011;68282;42.698;23.350;2023-12-20T05:26:17;40.55;;;20.40;;
78893;SDS011;68282;42.698;23.350;2023-12-20T05:28:42;41.08;;;22.85;;
78893;SDS011;68282;42.698;23.350;2023-12-20T05:31:08;42.58;;;21.83;;
78893;SDS011;68282;42.698;23.350;2023-12-20T05:33:34;35.40;;;21.95;;
78893;SDS011;68282;42.698;23.350;2023-12-20T05:35:59;43.10;;;25.00;;
78893;SDS011;68282;42.698;23.350;2023-12-20T05:38:25;37.00;;;19.98;;
78893;SDS011;68282;42.698;23.350;2023-12-20T05:40:51;34.70;;;19.75;;
78893;SDS011;68282;42.698;23.350;2023-12-20T05:43:16;41.25;;;21.23;;
78893;SDS011;68282;42.698;23.350;2023-12-20T05:45:42;38.47;;;19.80;;
78893;SDS011;68282;42.698;23.350;2023-12-20T05:48:07;44.90;;;24.42;;
78893;SDS011;68282;42.698;23.350;2023-12-20T05:50:33;36.30;;;18.08;;
78893;SDS011;68282;42.698;23.350;2023-12-20T05:53:00;39.03;;;19.08;;
78893;SDS011;68282;42.698;23.350;2023-12-20T05:55:25;42.83;;;22.50;;
78893;SDS011;68282;42.698;23.350;2023-12-20T05:57:51;28.92;;;17.35;;
78893;SDS011;68282;42.698;23.350;2023-12-20T06:00:16;34.88;;;20.15;;
78893;SDS011;68282;42.698;23.350;2023-12-20T06:02:42;38.70;;;20.48;;
78893;SDS011;68282;42.698;23.350;2023-12-20T06:05:08;32.88;;;19.65;;
78893;SDS011;68282;42.698;23.350;2023-12-20T06:07:33;42.90;;;23.00;;
78893;SDS011;68282;42.698;23.350;2023-12-20T06:09:59;34.38;;;18.88;;
78893;SDS011;68282;42.698;23.350;2023-12-20T06:12:24;36.30;;;19.23;;
78893;SDS011;68282;42.698;23.350;2023-12-20T06:14:52;35.35;;;18.70;;
78893;SDS011;68282;42.698;23.350;2023-12-20T06:17:17;34.22;;;18.90;;
78893;SDS011;68282;42.698;23.350;2023-12-20T06:19:44;36.13;;;19.20;;
78893;SDS011;68282;42.698;23.350;2023-12-20T06:22:13;42.63;;;20.20;;
78893;SDS011;68282;42.698;23.350;2023-12-20T06:24:38;40.33;;;21.20;;
78893;SDS011;68282;42.698;23.350;2023-12-20T06:27:04;36.28;;;19.88;;
78893;SDS011;68282;42.698;23.350;2023-12-20T06:29:30;34.00;;;20.52;;
78893;SDS011;68282;42.698;23.350;2023-12-20T06:31:56;37.35;;;19.45;;
78893;SDS011;68282;42.698;23.350;2023-12-20T06:34:21;46.28;;;21.85;;
78893;SDS011;68282;42.698;23.350;2023-12-20T06:36:47;40.25;;;22.40;;
78893;SDS011;68282;42.698;23.350;2023-12-20T06:39:12;37.22;;;19.75;;
78893;SDS011;68282;42.698;23.350;2023-12-20T06:41:39;38.75;;;21.48;;
78893;SDS011;68282;42.698;23.350;2023-12-20T06:44:04;42.80;;;21.67;;
78893;SDS011;68282;42.698;23.350;2023-12-20T06:46:30;36.25;;;18.27;;
78893;SDS011;68282;42.698;23.350;2023-12-20T06:48:55;36.97;;;18.42;;
78893;SDS011;68282;42.698;23.350;2023-12-20T06:51:21;39.90;;;21.55;;
78893;SDS011;68282;42.698;23.350;2023-12-20T06:53:50;36.47;;;20.30;;
78893;SDS011;68282;42.698;23.350;2023-12-20T06:56:16;47.05;;;22.40;;
78893;SDS011;68282;42.698;23.350;2023-12-20T06:58:42;40.08;;;20.55;;
78893;SDS011;68282;42.698;23.350;2023-12-20T07:01:11;35.88;;;19.45;;
78893;SDS011;68282;42.698;23.350;2023-12-20T07:03:38;32.88;;;19.80;;
78893;SDS011;68282;42.698;23.350;2023-12-20T07:06:03;36.17;;;19.90;;
78893;SDS011;68282;42.698;23.350;2023-12-20T07:08:29;40.33;;;22.70;;
78893;SDS011;68282;42.698;23.350;2023-12-20T07:10:54;41.10;;;21.48;;
78893;SDS011;68282;42.698;23.350;2023-12-20T07:13:20;41.38;;;21.58;;
78893;SDS011;68282;42.698;23.350;2023-12-20T07:15:45;37.15;;;19.75;;
78893;SDS011;68282;42.698;23.350;2023-12-20T07:18:11;36.78;;;19.40;;
78893;SDS011;68282;42.698;23.350;2023-12-20T07:20:36;35.30;;;19.15;;
78893;SDS011;68282;42.698;23.350;2023-12-20T07:23:02;40.83;;;21.92;;
78893;SDS011;68282;42.698;23.350;2023-12-20T07:25:27;33.70;;;19.70;;
78893;SDS011;68282;42.698;23.350;2023-12-20T07:27:53;31.85;;;19.05;;
78893;SDS011;68282;42.698;23.350;2023-12-20T07:30:19;39.42;;;21.10;;
78893;SDS011;68282;42.698;23.350;2023-12-20T07:32:44;49.35;;;25.17;;
78893;SDS011;68282;42.698;23.350;2023-12-20T07:35:10;39.47;;;22.35;;
78893;SDS011;68282;42.698;23.350;2023-12-20T07:37:35;38.92;;;21.08;;
78893;SDS011;68282;42.698;23.350;2023-12-20T07:40:01;46.28;;;23.83;;
78893;SDS011;68282;42.698;23.350;2023-12-20T07:42:26;44.58;;;23.05;;
78893;SDS011;68282;42.698;23.350;2023-12-20T07:44:52;48.05;;;24.13;;
78893;SDS011;68282;42.698;23.350;2023-12-20T07:47:17;46.75;;;23.38;;
78893;SDS011;68282;42.698;23.350;2023-12-20T07:49:48;47.53;;;24.75;;
78893;SDS011;68282;42.698;23.350;2023-12-20T07:52:14;44.25;;;21.33;;
78893;SDS011;68282;42.698;23.350;2023-12-20T07:54:39;44.88;;;25.08;;
78893;SDS011;68282;42.698;23.350;2023-12-20T07:57:05;44.38;;;23.52;;
78893;SDS011;68282;42.698;23.350;2023-12-20T07:59:30;39.85;;;23.05;;
78893;SDS011;68282;42.698;23.350;2023-12-20T08:01:56;56.75;;;28.58;;
78893;SDS011;68282;42.698;23.350;2023-12-20T08:04:24;46.22;;;25.58;;
78893;SDS011;68282;42.698;23.350;2023-12-20T08:06:50;48.92;;;25.50;;
78893;SDS011;68282;42.698;23.350;2023-12-20T08:09:15;43.88;;;25.25;;
78893;SDS011;68282;42.698;23.350;2023-12-20T08:11:44;45.45;;;25.35;;
78893;SDS011;68282;42.698;23.350;2023-12-20T08:14:13;44.45;;;21.83;;
78893;SDS011;68282;42.698;23.350;2023-12-20T08:16:39;46.75;;;23.02;;
78893;SDS011;68282;42.698;23.350;2023-12-20T08:19:05;42.10;;;21.33;;
78893;SDS011;68282;42.698;23.350;2023-12-20T08:21:30;50.80;;;24.60;;
78893;SDS011;68282;42.698;23.350;2023-12-20T08:23:56;41.72;;;23.35;;
78893;SDS011;68282;42.698;23.350;2023-12-20T08:26:21;42.80;;;23.00;;
78893;SDS011;68282;42.698;23.350;2023-12-20T08:28:48;45.15;;;23.92;;
78893;SDS011;68282;42.698;23.350;2023-12-20T08:31:14;51.75;;;24.33;;
78893;SDS011;68282;42.698;23.350;2023-12-20T08:33:41;37.88;;;22.05;;
78893;SDS011;68282;42.698;23.350;2023-12-20T08:36:09;58.15;;;23.88;;
78893;SDS011;68282;42.698;23.350;2023-12-20T08:38:34;41.38;;;21.02;;
78893;SDS011;68282;42.698;23.350;2023-12-20T08:41:00;40.67;;;21.67;;
78893;SDS011;68282;42.698;23.350;2023-12-20T08:43:26;36.13;;;20.02;;
78893;SDS011;68282;42.698;23.350;2023-12-20T08:45:52;39.47;;;21.17;;
78893;SDS011;68282;42.698;23.350;2023-12-20T08:48:17;41.63;;;23.05;;
78893;SDS011;68282;42.698;23.350;2023-12-20T08:50:43;40.85;;;21.33;;
78893;SDS011;68282;42.698;23.350;2023-12-20T08:53:08;42.00;;;22.50;;
78893;SDS011;68282;42.698;23.350;2023-12-20T08:55:34;42.05;;;20.02;;
78893;SDS011;68282;42.698;23.350;2023-12-20T08:57:59;45.83;;;21.20;;
78893;SDS011;68282;42.698;23.350;2023-12-20T09:00:25;46.05;;;20.23;;
78893;SDS011;68282;42.698;23.350;2023-12-20T09:02:52;46.53;;;20.45;;
78893;SDS011;68282;42.698;23.350;2023-12-20T09:05:19;45.17;;;20.17;;
78893;SDS011;68282;42.698;23.350;2023-12-20T09:07:45;49.45;;;20.90;;
78893;SDS011;68282;42.698;23.350;2023-12-20T09:10:11;47.47;;;23.90;;
78893;SDS011;68282;42.698;23.350;2023-12-20T09:12:38;42.35;;;24.10;;
78893;SDS011;68282;42.698;23.350;2023-12-20T09:15:06;52.10;;;24.92;;
78893;SDS011;68282;42.698;23.350;2023-12-20T09:17:32;58.70;;;28.90;;
78893;SDS011;68282;42.698;23.350;2023-12-20T09:19:57;44.35;;;23.25;;
78893;SDS011;68282;42.698;23.350;2023-12-20T09:22:25;53.30;;;25.90;;
78893;SDS011;68282;42.698;23.350;2023-12-20T09:24:50;51.95;;;26.95;;
78893;SDS011;68282;42.698;23.350;2023-12-20T09:27:16;52.05;;;22.83;;
78893;SDS011;68282;42.698;23.350;2023-12-20T09:29:41;54.65;;;26.42;;
78893;SDS011;68282;42.698;23.350;2023-12-20T09:32:07;57.78;;;25.90;;
78893;SDS011;68282;42.698;23.350;2023-12-20T09:34:33;44.95;;;22.73;;
78893;SDS011;68282;42.698;23.350;2023-12-20T09:36:59;49.30;;;23.40;;
78893;SDS011;68282;42.698;23.350;2023-12-20T09:39:24;52.47;;;27.45;;
78893;SDS011;68282;42.698;23.350;2023-12-20T09:42:02;47.92;;;25.40;;
78893;SDS011;68282;42.698;23.350;2023-12-20T09:44:29;50.22;;;24.33;;
78893;SDS011;68282;42.698;23.350;2023-12-20T09:46:56;51.35;;;20.70;;
78893;SDS011;68282;42.698;23.350;2023-12-20T09:49:22;57.05;;;25.27;;
78893;SDS011;68282;42.698;23.350;2023-12-20T09:51:48;53.72;;;24.38;;
78893;SDS011;68282;42.698;23.350;2023-12-20T09:54:16;55.28;;;23.55;;
78893;SDS011;68282;42.698;23.350;2023-12-20T09:56:43;54.30;;;25.65;;
78893;SDS011;68282;42.698;23.350;2023-12-20T09:59:09;50.08;;;24.17;;
78893;SDS011;68282;42.698;23.350;2023-12-20T10:01:36;62.83;;;24.35;;
78893;SDS011;68282;42.698;23.350;2023-12-20T10:04:05;48.63;;;23.92;;
78893;SDS011;68282;42.698;23.350;2023-12-20T10:09:17;39.15;;;19.13;;
78893;SDS011;68282;42.698;23.350;2023-12-20T10:11:43;47.85;;;22.00;;
78893;SDS011;68282;42.698;23.350;2023-12-20T10:14:10;53.58;;;22.60;;
78893;SDS011;68282;42.698;23.350;2023-12-20T10:16:36;52.38;;;20.75;;
78893;SDS011;68282;42.698;23.350;2023-12-20T10:19:01;44.90;;;21.65;;
78893;SDS011;68282;42.698;23.350;2023-12-20T10:21:27;40.30;;;19.90;;
78893;SDS011;68282;42.698;23.350;2023-12-20T10:23:56;55.00;;;23.35;;
78893;SDS011;68282;42.698;23.350;2023-12-20T10:26:23;55.63;;;25.42;;
78893;SDS011;68282;42.698;23.350;2023-12-20T10:29:10;52.05;;;23.38;;
78893;SDS011;68282;42.698;23.350;2023-12-20T10:31:36;42.75;;;22.75;;
78893;SDS011;68282;42.698;23.350;2023-12-20T10:34:03;45.60;;;20.58;;
78893;SDS011;68282;42.698;23.350;2023-12-20T10:36:30;59.55;;;25.95;;
78893;SDS011;68282;42.698;23.350;2023-12-20T10:38:57;44.90;;;21.75;;
78893;SDS011;68282;42.698;23.350;2023-12-20T10:41:27;59.95;;;26.73;;
78893;SDS011;68282;42.698;23.350;2023-12-20T10:48:52;47.58;;;22.35;;
78893;SDS011;68282;42.698;23.350;2023-12-20T10:51:19;51.47;;;26.08;;
78893;SDS011;68282;42.698;23.350;2023-12-20T10:53:47;54.92;;;25.73;;
78893;SDS011;68282;42.698;23.350;2023-12-20T10:56:15;56.03;;;24.65;;
78893;SDS011;68282;42.698;23.350;2023-12-20T10:58:43;58.20;;;26.73;;
78893;SDS011;68282;42.698;23.350;2023-12-20T11:01:11;52.72;;;26.88;;
78893;SDS011;68282;42.698;23.350;2023-12-20T11:03:39;56.60;;;25.98;;
78893;SDS011;68282;42.698;23.350;2023-12-20T11:09:06;61.65;;;26.77;;
78893;SDS011;68282;42.698;23.350;2023-12-20T11:11:46;61.05;;;26.58;;
78893;SDS011;68282;42.698;23.350;2023-12-20T11:14:19;60.63;;;28.83;;
78893;SDS011;68282;42.698;23.350;2023-12-20T11:16:48;69.47;;;28.00;;
78893;SDS011;68282;42.698;23.350;2023-12-20T11:19:15;58.53;;;28.40;;
78893;SDS011;68282;42.698;23.350;2023-12-20T11:21:42;63.85;;;28.15;;
78893;SDS011;68282;42.698;23.350;2023-12-20T11:24:07;59.13;;;29.02;;
78893;SDS011;68282;42.698;23.350;2023-12-20T11:26:34;65.95;;;27.60;;
78893;SDS011;68282;42.698;23.350;2023-12-20T11:32:01;61.65;;;29.27;;
78893;SDS011;68282;42.698;23.350;2023-12-20T11:34:59;74.90;;;31.85;;
78893;SDS011;68282;42.698;23.350;2023-12-20T11:37:29;72.25;;;35.45;;
78893;SDS011;68282;42.698;23.350;2023-12-20T11:40:05;79.57;;;34.03;;
78893;SDS011;68282;42.698;23.350;2023-12-20T11:42:50;55.72;;;28.70;;
78893;SDS011;68282;42.698;23.350;2023-12-20T11:45:20;67.10;;;30.38;;
78893;SDS011;68282;42.698;23.350;2023-12-20T11:47:49;73.40;;;32.38;;
78893;SDS011;68282;42.698;23.350;2023-12-20T11:50:17;70.15;;;32.90;;
78893;SDS011;68282;42.698;23.350;2023-12-20T11:52:43;57.97;;;30.40;;
78893;SDS011;68282;42.698;23.350;2023-12-20T11:55:09;62.70;;;30.52;;
78893;SDS011;68282;42.698;23.350;2023-12-20T11:57:35;68.05;;;31.45;;
78893;SDS011;68282;42.698;23.350;2023-12-20T12:00:01;63.25;;;27.55;;
78893;SDS011;68282;42.698;23.350;2023-12-20T12:02:28;60.47;;;30.00;;
78893;SDS011;68282;42.698;23.350;2023-12-20T12:04:53;58.30;;;29.20;;
78893;SDS011;68282;42.698;23.350;2023-12-20T12:07:20;71.30;;;30.30;;
78893;SDS011;68282;42.698;23.350;2023-12-20T12:09:45;59.00;;;27.85;;
78893;SDS011;68282;42.698;23.350;2023-12-20T12:12:11;65.47;;;30.77;;
78893;SDS011;68282;42.698;23.350;2023-12-20T12:14:37;68.88;;;29.27;;
78893;SDS011;68282;42.698;23.350;2023-12-20T12:17:09;71.47;;;31.52;;
78893;SDS011;68282;42.698;23.350;2023-12-20T12:19:36;73.85;;;32.33;;
78893;SDS011;68282;42.698;23.350;2023-12-20T12:22:08;76.00;;;34.33;;
78893;SDS011;68282;42.698;23.350;2023-12-20T12:27:05;62.28;;;28.95;;
78893;SDS011;68282;42.698;23.350;2023-12-20T12:29:31;75.25;;;32.47;;
78893;SDS011;68282;42.698;23.350;2023-12-20T12:31:57;66.13;;;29.40;;
78893;SDS011;68282;42.698;23.350;2023-12-20T12:34:23;65.57;;;30.67;;
78893;SDS011;68282;42.698;23.350;2023-12-20T12:36:48;63.47;;;30.80;;
78893;SDS011;68282;42.698;23.350;2023-12-20T12:39:14;73.43;;;28.65;;
78893;SDS011;68282;42.698;23.350;2023-12-20T12:41:40;63.60;;;30.10;;
78893;SDS011;68282;42.698;23.350;2023-12-20T12:44:09;71.28;;;27.67;;
78893;SDS011;68282;42.698;23.350;2023-12-20T12:46:35;72.50;;;33.78;;
78893;SDS011;68282;42.698;23.350;2023-12-20T12:49:01;67.78;;;31.33;;
78893;SDS011;68282;42.698;23.350;2023-12-20T12:51:26;77.70;;;32.53;;
78893;SDS011;68282;42.698;23.350;2023-12-20T12:53:52;74.32;;;32.90;;
78893;SDS011;68282;42.698;23.350;2023-12-20T12:56:18;79.65;;;34.50;;
78893;SDS011;68282;42.698;23.350;2023-12-20T12:58:44;70.15;;;31.75;;
78893;SDS011;68282;42.698;23.350;2023-12-20T13:01:11;56.75;;;27.25;;
78893;SDS011;68282;42.698;23.350;2023-12-20T13:03:37;59.17;;;27.98;;
78893;SDS011;68282;42.698;23.350;2023-12-20T13:06:02;51.60;;;26.40;;
78893;SDS011;68282;42.698;23.350;2023-12-20T13:08:30;51.20;;;24.60;;
78893;SDS011;68282;42.698;23.350;2023-12-20T13:10:56;52.95;;;21.67;;
78893;SDS011;68282;42.698;23.350;2023-12-20T13:13:25;45.55;;;22.27;;
78893;SDS011;68282;42.698;23.350;2023-12-20T13:15:53;52.63;;;23.95;;
78893;SDS011;68282;42.698;23.350;2023-12-20T13:18:21;47.28;;;23.05;;
78893;SDS011;68282;42.698;23.350;2023-12-20T13:20:47;62.25;;;29.33;;
78893;SDS011;68282;42.698;23.350;2023-12-20T13:23:13;52.83;;;22.33;;
78893;SDS011;68282;42.698;23.350;2023-12-20T13:25:39;48.47;;;23.45;;
78893;SDS011;68282;42.698;23.350;2023-12-20T13:28:05;47.20;;;23.35;;
78893;SDS011;68282;42.698;23.350;2023-12-20T13:30:31;49.92;;;22.88;;
78893;SDS011;68282;42.698;23.350;2023-12-20T13:32:58;57.78;;;24.58;;
78893;SDS011;68282;42.698;23.350;2023-12-20T13:35:23;54.70;;;23.67;;
78893;SDS011;68282;42.698;23.350;2023-12-20T13:37:49;49.55;;;22.88;;
78893;SDS011;68282;42.698;23.350;2023-12-20T13:40:14;56.40;;;24.73;;
78893;SDS011;68282;42.698;23.350;2023-12-20T13:42:40;60.08;;;27.77;;
78893;SDS011;68282;42.698;23.350;2023-12-20T13:45:06;52.13;;;23.55;;
78893;SDS011;68282;42.698;23.350;2023-12-20T13:47:32;55.45;;;25.65;;
78893;SDS011;68282;42.698;23.350;2023-12-20T13:49:58;58.60;;;25.35;;
78893;SDS011;68282;42.698;23.350;2023-12-20T13:52:23;57.53;;;25.58;;
78893;SDS011;68282;42.698;23.350;2023-12-20T13:54:49;63.78;;;26.25;;
78893;SDS011;68282;42.698;23.350;2023-12-20T13:57:14;64.82;;;27.02;;
78893;SDS011;68282;42.698;23.350;2023-12-20T13:59:40;53.88;;;24.23;;
78893;SDS011;68282;42.698;23.350;2023-12-20T14:02:05;63.22;;;25.20;;
78893;SDS011;68282;42.698;23.350;2023-12-20T14:04:31;51.53;;;22.85;;
78893;SDS011;68282;42.698;23.350;2023-12-20T14:06:58;61.33;;;23.80;;
78893;SDS011;68282;42.698;23.350;2023-12-20T14:09:24;60.83;;;27.38;;
78893;SDS011;68282;42.698;23.350;2023-12-20T14:11:50;55.88;;;26.70;;
78893;SDS011;68282;42.698;23.350;2023-12-20T14:14:15;55.28;;;23.42;;
78893;SDS011;68282;42.698;23.350;2023-12-20T14:16:41;61.08;;;26.15;;
78893;SDS011;68282;42.698;23.350;2023-12-20T14:19:11;52.97;;;22.98;;